sensor_id;sensor_type;location;lat;lon;timestamp;P1;durP1;ratioP1;P2;durP2;ratioP2
74523;SDS011;63074;44.696;10.358;2023-05-29T00:01:27;11.55;;;7.60;;
74523;SDS011;63074;44.696;10.358;2023-05-29T00:03:54;11.57;;;5.95;;
74523;SDS011;63074;44.696;10.358;2023-05-29T00:06:20;10.52;;;6.60;;
74523;SDS011;63074;44.696;10.358;2023-05-29T00:08:46;12.93;;;6.55;;
74523;SDS011;63074;44.696;10.358;2023-05-29T00:11:12;11.88;;;6.30;;
74523;SDS011;63074;44.696;10.358;2023-05-29T00:13:39;13.35;;;6.78;;
74523;SDS011;63074;44.696;10.358;2023-05-29T00:16:05;9.63;;;7.13;;
74523;SDS011;63074;44.696;10.358;2023-05-29T00:18:34;9.75;;;6.85;;
74523;SDS011;63074;44.696;10.358;2023-05-29T00:21:01;10.75;;;6.25;;
74523;SDS011;63074;44.696;10.358;2023-05-29T00:23:27;11.75;;;6.22;;
74523;SDS011;63074;44.696;10.358;2023-05-29T00:25:53;11.32;;;6.65;;
74523;SDS011;63074;44.696;10.358;2023-05-29T00:28:19;11.70;;;6.97;;
74523;SDS011;63074;44.696;10.358;2023-05-29T00:30:45;9.20;;;7.18;;
74523;SDS011;63074;44.696;10.358;2023-05-29T00:33:12;10.25;;;6.80;;
74523;SDS011;63074;44.696;10.358;2023-05-29T00:35:38;10.93;;;6.72;;
74523;SDS011;63074;44.696;10.358;2023-05-29T00:38:04;9.23;;;6.20;;
74523;SDS011;63074;44.696;10.358;2023-05-29T00:40:30;11.68;;;7.10;;
74523;SDS011;63074;44.696;10.358;2023-05-29T00:42:57;10.20;;;6.90;;
74523;SDS011;63074;44.696;10.358;2023-05-29T00:45:23;9.73;;;7.05;;
74523;SDS011;63074;44.696;10.358;2023-05-29T00:47:49;11.48;;;6.90;;
74523;SDS011;63074;44.696;10.358;2023-05-29T00:50:15;12.75;;;7.65;;
74523;SDS011;63074;44.696;10.358;2023-05-29T00:52:43;13.45;;;7.80;;
74523;SDS011;63074;44.696;10.358;2023-05-29T00:55:10;12.55;;;7.18;;
74523;SDS011;63074;44.696;10.358;2023-05-29T00:57:38;11.20;;;7.30;;
74523;SDS011;63074;44.696;10.358;2023-05-29T01:00:05;10.20;;;6.50;;
74523;SDS011;63074;44.696;10.358;2023-05-29T01:02:38;9.77;;;6.47;;
74523;SDS011;63074;44.696;10.358;2023-05-29T01:05:09;11.07;;;7.40;;
74523;SDS011;63074;44.696;10.358;2023-05-29T01:07:36;14.00;;;7.72;;
74523;SDS011;63074;44.696;10.358;2023-05-29T01:10:03;12.05;;;7.03;;
74523;SDS011;63074;44.696;10.358;2023-05-29T01:24:01;13.48;;;7.65;;
74523;SDS011;63074;44.696;10.358;2023-05-29T01:29:35;12.13;;;7.43;;
74523;SDS011;63074;44.696;10.358;2023-05-29T01:32:03;11.68;;;7.65;;
74523;SDS011;63074;44.696;10.358;2023-05-29T01:34:31;10.85;;;7.50;;
74523;SDS011;63074;44.696;10.358;2023-05-29T01:36:57;11.05;;;7.50;;
74523;SDS011;63074;44.696;10.358;2023-05-29T01:39:25;12.38;;;8.73;;
74523;SDS011;63074;44.696;10.358;2023-05-29T01:41:52;10.43;;;8.45;;
74523;SDS011;63074;44.696;10.358;2023-05-29T01:44:20;11.80;;;8.10;;
74523;SDS011;63074;44.696;10.358;2023-05-29T01:46:48;13.68;;;8.07;;
74523;SDS011;63074;44.696;10.358;2023-05-29T01:49:15;10.90;;;7.32;;
74523;SDS011;63074;44.696;10.358;2023-05-29T01:51:42;11.23;;;7.90;;
74523;SDS011;63074;44.696;10.358;2023-05-29T01:54:09;15.93;;;9.13;;
74523;SDS011;63074;44.696;10.358;2023-05-29T01:56:35;12.25;;;8.02;;
74523;SDS011;63074;44.696;10.358;2023-05-29T01:59:03;11.90;;;8.25;;
74523;SDS011;63074;44.696;10.358;2023-05-29T02:01:31;14.77;;;8.07;;
74523;SDS011;63074;44.696;10.358;2023-05-29T02:03:59;14.05;;;8.77;;
74523;SDS011;63074;44.696;10.358;2023-05-29T02:06:26;14.25;;;8.65;;
74523;SDS011;63074;44.696;10.358;2023-05-29T02:08:52;14.15;;;9.63;;
74523;SDS011;63074;44.696;10.358;2023-05-29T02:11:18;13.40;;;8.38;;
74523;SDS011;63074;44.696;10.358;2023-05-29T02:13:45;14.18;;;8.32;;
74523;SDS011;63074;44.696;10.358;2023-05-29T02:16:11;14.88;;;9.15;;
74523;SDS011;63074;44.696;10.358;2023-05-29T02:18:37;14.75;;;9.15;;
74523;SDS011;63074;44.696;10.358;2023-05-29T02:21:04;13.30;;;8.82;;
74523;SDS011;63074;44.696;10.358;2023-05-29T02:23:30;14.23;;;8.95;;
74523;SDS011;63074;44.696;10.358;2023-05-29T02:25:56;14.88;;;8.57;;
74523;SDS011;63074;44.696;10.358;2023-05-29T02:28:23;12.52;;;8.93;;
74523;SDS011;63074;44.696;10.358;2023-05-29T02:30:50;14.88;;;8.95;;
74523;SDS011;63074;44.696;10.358;2023-05-29T02:33:16;14.20;;;8.95;;
74523;SDS011;63074;44.696;10.358;2023-05-29T02:35:42;13.73;;;8.48;;
74523;SDS011;63074;44.696;10.358;2023-05-29T02:38:08;10.57;;;7.22;;
74523;SDS011;63074;44.696;10.358;2023-05-29T02:40:34;12.38;;;8.38;;
74523;SDS011;63074;44.696;10.358;2023-05-29T02:43:01;14.43;;;9.55;;
74523;SDS011;63074;44.696;10.358;2023-05-29T02:45:27;16.50;;;9.50;;
74523;SDS011;63074;44.696;10.358;2023-05-29T02:47:53;16.58;;;9.55;;
74523;SDS011;63074;44.696;10.358;2023-05-29T02:50:19;14.65;;;9.40;;
74523;SDS011;63074;44.696;10.358;2023-05-29T02:52:45;14.60;;;8.70;;
74523;SDS011;63074;44.696;10.358;2023-05-29T02:55:11;14.20;;;8.60;;
74523;SDS011;63074;44.696;10.358;2023-05-29T02:57:38;13.02;;;8.40;;
74523;SDS011;63074;44.696;10.358;2023-05-29T03:00:05;12.90;;;8.45;;
74523;SDS011;63074;44.696;10.358;2023-05-29T03:02:33;11.80;;;9.07;;
74523;SDS011;63074;44.696;10.358;2023-05-29T03:05:02;13.38;;;8.32;;
74523;SDS011;63074;44.696;10.358;2023-05-29T03:07:28;14.48;;;7.70;;
74523;SDS011;63074;44.696;10.358;2023-05-29T03:09:54;12.95;;;8.40;;
74523;SDS011;63074;44.696;10.358;2023-05-29T03:12:21;15.45;;;9.38;;
74523;SDS011;63074;44.696;10.358;2023-05-29T03:14:50;13.15;;;8.40;;
74523;SDS011;63074;44.696;10.358;2023-05-29T03:17:16;14.00;;;7.65;;
74523;SDS011;63074;44.696;10.358;2023-05-29T03:19:42;13.77;;;8.35;;
74523;SDS011;63074;44.696;10.358;2023-05-29T03:22:08;12.80;;;7.72;;
74523;SDS011;63074;44.696;10.358;2023-05-29T03:24:34;12.20;;;7.88;;
74523;SDS011;63074;44.696;10.358;2023-05-29T03:27:01;9.80;;;7.40;;
74523;SDS011;63074;44.696;10.358;2023-05-29T03:29:28;11.50;;;7.75;;
74523;SDS011;63074;44.696;10.358;2023-05-29T03:31:55;12.55;;;7.05;;
74523;SDS011;63074;44.696;10.358;2023-05-29T03:34:21;9.90;;;7.38;;
74523;SDS011;63074;44.696;10.358;2023-05-29T03:36:48;12.13;;;7.13;;
74523;SDS011;63074;44.696;10.358;2023-05-29T03:39:14;11.50;;;7.70;;
74523;SDS011;63074;44.696;10.358;2023-05-29T03:41:40;11.82;;;6.82;;
74523;SDS011;63074;44.696;10.358;2023-05-29T03:44:07;12.30;;;7.78;;
74523;SDS011;63074;44.696;10.358;2023-05-29T03:46:34;11.40;;;6.40;;
74523;SDS011;63074;44.696;10.358;2023-05-29T03:49:00;11.88;;;6.43;;
74523;SDS011;63074;44.696;10.358;2023-05-29T03:51:27;9.57;;;6.65;;
74523;SDS011;63074;44.696;10.358;2023-05-29T03:53:53;12.40;;;7.32;;
74523;SDS011;63074;44.696;10.358;2023-05-29T03:56:19;11.48;;;6.30;;
74523;SDS011;63074;44.696;10.358;2023-05-29T03:58:46;9.50;;;5.88;;
74523;SDS011;63074;44.696;10.358;2023-05-29T04:01:12;10.73;;;6.95;;
74523;SDS011;63074;44.696;10.358;2023-05-29T04:03:38;10.57;;;6.53;;
74523;SDS011;63074;44.696;10.358;2023-05-29T04:06:05;10.77;;;6.30;;
74523;SDS011;63074;44.696;10.358;2023-05-29T04:08:31;10.35;;;6.22;;
74523;SDS011;63074;44.696;10.358;2023-05-29T04:10:57;10.85;;;6.40;;
74523;SDS011;63074;44.696;10.358;2023-05-29T04:13:24;11.48;;;6.63;;
74523;SDS011;63074;44.696;10.358;2023-05-29T04:15:50;10.07;;;6.20;;
74523;SDS011;63074;44.696;10.358;2023-05-29T04:18:17;10.20;;;6.63;;
74523;SDS011;63074;44.696;10.358;2023-05-29T04:20:44;9.93;;;5.93;;
74523;SDS011;63074;44.696;10.358;2023-05-29T04:23:12;8.88;;;5.82;;
74523;SDS011;63074;44.696;10.358;2023-05-29T04:25:38;10.70;;;6.30;;
74523;SDS011;63074;44.696;10.358;2023-05-29T04:28:05;10.30;;;6.38;;
74523;SDS011;63074;44.696;10.358;2023-05-29T04:30:31;8.98;;;6.15;;
74523;SDS011;63074;44.696;10.358;2023-05-29T04:32:58;10.63;;;6.47;;
74523;SDS011;63074;44.696;10.358;2023-05-29T04:35:25;11.50;;;6.95;;
74523;SDS011;63074;44.696;10.358;2023-05-29T04:37:53;11.00;;;7.28;;
74523;SDS011;63074;44.696;10.358;2023-05-29T04:40:21;10.00;;;6.72;;
74523;SDS011;63074;44.696;10.358;2023-05-29T04:42:47;11.88;;;6.72;;
74523;SDS011;63074;44.696;10.358;2023-05-29T04:45:14;11.45;;;7.45;;
74523;SDS011;63074;44.696;10.358;2023-05-29T04:47:41;10.50;;;6.43;;
74523;SDS011;63074;44.696;10.358;2023-05-29T04:50:13;14.43;;;7.00;;
74523;SDS011;63074;44.696;10.358;2023-05-29T04:52:39;11.10;;;7.30;;
74523;SDS011;63074;44.696;10.358;2023-05-29T04:55:07;10.93;;;7.72;;
74523;SDS011;63074;44.696;10.358;2023-05-29T04:57:33;13.02;;;7.35;;
74523;SDS011;63074;44.696;10.358;2023-05-29T04:59:59;12.23;;;6.70;;
74523;SDS011;63074;44.696;10.358;2023-05-29T05:02:26;10.57;;;6.75;;
74523;SDS011;63074;44.696;10.358;2023-05-29T05:04:52;12.07;;;6.88;;
74523;SDS011;63074;44.696;10.358;2023-05-29T05:07:18;12.18;;;7.10;;
74523;SDS011;63074;44.696;10.358;2023-05-29T05:09:44;11.65;;;6.25;;
74523;SDS011;63074;44.696;10.358;2023-05-29T05:12:11;9.38;;;6.82;;
74523;SDS011;63074;44.696;10.358;2023-05-29T05:14:37;10.93;;;6.25;;
74523;SDS011;63074;44.696;10.358;2023-05-29T05:17:03;10.88;;;6.80;;
74523;SDS011;63074;44.696;10.358;2023-05-29T05:19:29;11.05;;;6.70;;
74523;SDS011;63074;44.696;10.358;2023-05-29T05:21:56;9.63;;;6.00;;
74523;SDS011;63074;44.696;10.358;2023-05-29T05:24:22;9.90;;;5.85;;
74523;SDS011;63074;44.696;10.358;2023-05-29T05:26:48;11.15;;;6.68;;
74523;SDS011;63074;44.696;10.358;2023-05-29T05:29:14;10.13;;;6.28;;
74523;SDS011;63074;44.696;10.358;2023-05-29T05:31:40;8.65;;;5.50;;
74523;SDS011;63074;44.696;10.358;2023-05-29T05:34:06;12.05;;;6.13;;
74523;SDS011;63074;44.696;10.358;2023-05-29T05:36:33;10.35;;;5.55;;
74523;SDS011;63074;44.696;10.358;2023-05-29T05:38:59;8.95;;;5.78;;
74523;SDS011;63074;44.696;10.358;2023-05-29T05:41:25;12.13;;;6.55;;
74523;SDS011;63074;44.696;10.358;2023-05-29T05:43:51;9.70;;;6.25;;
74523;SDS011;63074;44.696;10.358;2023-05-29T05:46:17;10.63;;;6.70;;
74523;SDS011;63074;44.696;10.358;2023-05-29T05:48:44;9.35;;;5.63;;
74523;SDS011;63074;44.696;10.358;2023-05-29T05:51:10;11.02;;;6.68;;
74523;SDS011;63074;44.696;10.358;2023-05-29T05:53:37;12.85;;;6.93;;
74523;SDS011;63074;44.696;10.358;2023-05-29T05:56:04;12.10;;;7.43;;
74523;SDS011;63074;44.696;10.358;2023-05-29T05:58:30;11.90;;;7.28;;
74523;SDS011;63074;44.696;10.358;2023-05-29T06:00:56;11.52;;;7.40;;
74523;SDS011;63074;44.696;10.358;2023-05-29T06:03:23;13.43;;;8.20;;
74523;SDS011;63074;44.696;10.358;2023-05-29T06:05:49;11.85;;;7.25;;
74523;SDS011;63074;44.696;10.358;2023-05-29T06:08:17;14.13;;;8.45;;
74523;SDS011;63074;44.696;10.358;2023-05-29T06:10:43;13.70;;;8.60;;
74523;SDS011;63074;44.696;10.358;2023-05-29T06:13:09;15.63;;;8.75;;
74523;SDS011;63074;44.696;10.358;2023-05-29T06:15:35;11.95;;;7.63;;
74523;SDS011;63074;44.696;10.358;2023-05-29T06:18:01;12.07;;;8.40;;
74523;SDS011;63074;44.696;10.358;2023-05-29T06:20:28;13.70;;;8.40;;
74523;SDS011;63074;44.696;10.358;2023-05-29T06:22:54;13.55;;;8.38;;
74523;SDS011;63074;44.696;10.358;2023-05-29T06:25:20;12.95;;;7.95;;
74523;SDS011;63074;44.696;10.358;2023-05-29T06:27:47;14.55;;;8.10;;
74523;SDS011;63074;44.696;10.358;2023-05-29T06:30:13;14.00;;;7.32;;
74523;SDS011;63074;44.696;10.358;2023-05-29T06:32:40;14.52;;;8.23;;
74523;SDS011;63074;44.696;10.358;2023-05-29T06:35:06;14.15;;;8.20;;
74523;SDS011;63074;44.696;10.358;2023-05-29T06:37:32;13.27;;;7.80;;
74523;SDS011;63074;44.696;10.358;2023-05-29T06:39:59;14.25;;;8.00;;
74523;SDS011;63074;44.696;10.358;2023-05-29T06:42:25;12.05;;;7.43;;
74523;SDS011;63074;44.696;10.358;2023-05-29T06:44:51;12.13;;;7.28;;
74523;SDS011;63074;44.696;10.358;2023-05-29T06:47:17;15.32;;;8.55;;
74523;SDS011;63074;44.696;10.358;2023-05-29T06:49:43;11.70;;;7.80;;
74523;SDS011;63074;44.696;10.358;2023-05-29T06:52:09;11.68;;;6.90;;
74523;SDS011;63074;44.696;10.358;2023-05-29T06:54:35;12.75;;;8.00;;
74523;SDS011;63074;44.696;10.358;2023-05-29T06:57:02;13.13;;;8.23;;
74523;SDS011;63074;44.696;10.358;2023-05-29T06:59:28;15.10;;;8.68;;
74523;SDS011;63074;44.696;10.358;2023-05-29T07:01:54;14.57;;;8.57;;
74523;SDS011;63074;44.696;10.358;2023-05-29T07:04:21;13.40;;;8.75;;
74523;SDS011;63074;44.696;10.358;2023-05-29T07:06:47;14.60;;;8.95;;
74523;SDS011;63074;44.696;10.358;2023-05-29T07:09:13;14.38;;;9.23;;
74523;SDS011;63074;44.696;10.358;2023-05-29T07:11:39;13.77;;;9.48;;
74523;SDS011;63074;44.696;10.358;2023-05-29T07:14:05;16.17;;;9.07;;
74523;SDS011;63074;44.696;10.358;2023-05-29T07:16:31;21.85;;;11.85;;
74523;SDS011;63074;44.696;10.358;2023-05-29T07:18:58;19.33;;;10.85;;
74523;SDS011;63074;44.696;10.358;2023-05-29T07:21:24;20.77;;;12.38;;
74523;SDS011;63074;44.696;10.358;2023-05-29T07:23:51;20.35;;;11.70;;
74523;SDS011;63074;44.696;10.358;2023-05-29T07:26:17;18.20;;;11.00;;
74523;SDS011;63074;44.696;10.358;2023-05-29T07:28:43;19.27;;;10.75;;
74523;SDS011;63074;44.696;10.358;2023-05-29T07:31:11;18.65;;;11.38;;
74523;SDS011;63074;44.696;10.358;2023-05-29T07:33:39;19.58;;;10.75;;
74523;SDS011;63074;44.696;10.358;2023-05-29T07:36:06;17.27;;;10.48;;
74523;SDS011;63074;44.696;10.358;2023-05-29T07:38:33;17.30;;;11.52;;
74523;SDS011;63074;44.696;10.358;2023-05-29T07:40:59;18.73;;;11.68;;
74523;SDS011;63074;44.696;10.358;2023-05-29T07:43:25;17.10;;;9.75;;
74523;SDS011;63074;44.696;10.358;2023-05-29T07:45:51;16.83;;;10.73;;
74523;SDS011;63074;44.696;10.358;2023-05-29T07:48:17;17.95;;;9.80;;
74523;SDS011;63074;44.696;10.358;2023-05-29T07:50:44;20.23;;;11.07;;
74523;SDS011;63074;44.696;10.358;2023-05-29T07:53:10;16.45;;;10.70;;
74523;SDS011;63074;44.696;10.358;2023-05-29T07:55:37;21.33;;;10.75;;
74523;SDS011;63074;44.696;10.358;2023-05-29T07:58:03;17.67;;;10.48;;
74523;SDS011;63074;44.696;10.358;2023-05-29T08:00:29;18.30;;;10.82;;
74523;SDS011;63074;44.696;10.358;2023-05-29T08:02:55;17.00;;;10.10;;
74523;SDS011;63074;44.696;10.358;2023-05-29T08:05:22;20.45;;;10.98;;
74523;SDS011;63074;44.696;10.358;2023-05-29T08:07:48;20.15;;;10.68;;
74523;SDS011;63074;44.696;10.358;2023-05-29T08:10:14;20.15;;;11.73;;
74523;SDS011;63074;44.696;10.358;2023-05-29T08:12:41;18.45;;;10.95;;
74523;SDS011;63074;44.696;10.358;2023-05-29T08:15:07;18.35;;;11.52;;
74523;SDS011;63074;44.696;10.358;2023-05-29T08:17:33;16.20;;;10.68;;
74523;SDS011;63074;44.696;10.358;2023-05-29T08:20:00;19.52;;;11.73;;
74523;SDS011;63074;44.696;10.358;2023-05-29T08:22:29;19.58;;;11.07;;
74523;SDS011;63074;44.696;10.358;2023-05-29T08:27:21;18.42;;;10.60;;
74523;SDS011;63074;44.696;10.358;2023-05-29T08:29:47;16.52;;;10.10;;
74523;SDS011;63074;44.696;10.358;2023-05-29T08:32:13;16.88;;;10.57;;
74523;SDS011;63074;44.696;10.358;2023-05-29T08:34:40;17.75;;;9.77;;
74523;SDS011;63074;44.696;10.358;2023-05-29T08:37:07;16.00;;;10.18;;
74523;SDS011;63074;44.696;10.358;2023-05-29T08:39:35;17.73;;;9.60;;
74523;SDS011;63074;44.696;10.358;2023-05-29T08:42:05;16.08;;;9.57;;
74523;SDS011;63074;44.696;10.358;2023-05-29T08:44:40;15.23;;;10.07;;
74523;SDS011;63074;44.696;10.358;2023-05-29T08:47:11;17.10;;;9.77;;
74523;SDS011;63074;44.696;10.358;2023-05-29T08:49:43;15.60;;;9.43;;
74523;SDS011;63074;44.696;10.358;2023-05-29T08:52:17;17.20;;;10.55;;
74523;SDS011;63074;44.696;10.358;2023-05-29T08:54:46;20.70;;;9.45;;
74523;SDS011;63074;44.696;10.358;2023-05-29T08:57:12;16.00;;;10.82;;
74523;SDS011;63074;44.696;10.358;2023-05-29T08:59:42;16.38;;;10.00;;
74523;SDS011;63074;44.696;10.358;2023-05-29T09:02:10;16.02;;;9.80;;
74523;SDS011;63074;44.696;10.358;2023-05-29T09:04:37;16.88;;;10.15;;
74523;SDS011;63074;44.696;10.358;2023-05-29T09:07:04;20.35;;;10.02;;
74523;SDS011;63074;44.696;10.358;2023-05-29T09:09:34;17.20;;;9.65;;
74523;SDS011;63074;44.696;10.358;2023-05-29T09:12:00;17.42;;;9.20;;
74523;SDS011;63074;44.696;10.358;2023-05-29T09:14:43;14.93;;;9.50;;
74523;SDS011;63074;44.696;10.358;2023-05-29T09:17:10;15.70;;;10.00;;
74523;SDS011;63074;44.696;10.358;2023-05-29T09:19:37;17.88;;;10.50;;
74523;SDS011;63074;44.696;10.358;2023-05-29T09:24:36;14.75;;;8.60;;
74523;SDS011;63074;44.696;10.358;2023-05-29T09:27:06;16.85;;;9.65;;
74523;SDS011;63074;44.696;10.358;2023-05-29T09:29:37;14.10;;;8.63;;
74523;SDS011;63074;44.696;10.358;2023-05-29T09:32:08;16.48;;;9.30;;
74523;SDS011;63074;44.696;10.358;2023-05-29T09:34:35;15.15;;;9.07;;
74523;SDS011;63074;44.696;10.358;2023-05-29T09:37:03;15.25;;;9.60;;
74523;SDS011;63074;44.696;10.358;2023-05-29T09:39:49;17.65;;;9.68;;
74523;SDS011;63074;44.696;10.358;2023-05-29T09:42:19;16.77;;;10.18;;
74523;SDS011;63074;44.696;10.358;2023-05-29T09:44:48;17.80;;;10.70;;
74523;SDS011;63074;44.696;10.358;2023-05-29T09:47:17;21.38;;;11.93;;
74523;SDS011;63074;44.696;10.358;2023-05-29T09:49:44;21.77;;;11.23;;
74523;SDS011;63074;44.696;10.358;2023-05-29T09:52:14;16.90;;;10.18;;
74523;SDS011;63074;44.696;10.358;2023-05-29T09:54:45;17.42;;;10.77;;
74523;SDS011;63074;44.696;10.358;2023-05-29T09:57:16;18.92;;;11.00;;
74523;SDS011;63074;44.696;10.358;2023-05-29T09:59:43;19.73;;;11.40;;
74523;SDS011;63074;44.696;10.358;2023-05-29T10:02:10;21.13;;;11.40;;
74523;SDS011;63074;44.696;10.358;2023-05-29T10:04:40;17.35;;;10.85;;
74523;SDS011;63074;44.696;10.358;2023-05-29T10:07:10;16.98;;;10.05;;
74523;SDS011;63074;44.696;10.358;2023-05-29T10:09:55;18.27;;;10.57;;
74523;SDS011;63074;44.696;10.358;2023-05-29T10:12:27;17.63;;;10.77;;
74523;SDS011;63074;44.696;10.358;2023-05-29T10:14:56;16.60;;;10.48;;
74523;SDS011;63074;44.696;10.358;2023-05-29T10:17:25;17.88;;;10.40;;
74523;SDS011;63074;44.696;10.358;2023-05-29T10:19:56;17.60;;;10.50;;
74523;SDS011;63074;44.696;10.358;2023-05-29T10:22:25;16.27;;;9.07;;
74523;SDS011;63074;44.696;10.358;2023-05-29T10:24:52;17.83;;;9.65;;
74523;SDS011;63074;44.696;10.358;2023-05-29T10:27:21;14.35;;;8.68;;
74523;SDS011;63074;44.696;10.358;2023-05-29T10:29:59;14.75;;;9.05;;
74523;SDS011;63074;44.696;10.358;2023-05-29T10:32:40;16.35;;;10.07;;
74523;SDS011;63074;44.696;10.358;2023-05-29T10:35:36;16.15;;;9.07;;
74523;SDS011;63074;44.696;10.358;2023-05-29T10:38:12;15.82;;;8.90;;
74523;SDS011;63074;44.696;10.358;2023-05-29T10:40:43;13.13;;;9.00;;
74523;SDS011;63074;44.696;10.358;2023-05-29T10:45:57;18.25;;;11.32;;
74523;SDS011;63074;44.696;10.358;2023-05-29T10:50:54;18.80;;;10.48;;
74523;SDS011;63074;44.696;10.358;2023-05-29T10:53:24;15.55;;;9.48;;
74523;SDS011;63074;44.696;10.358;2023-05-29T10:55:55;16.60;;;9.15;;
74523;SDS011;63074;44.696;10.358;2023-05-29T10:58:24;14.52;;;8.77;;
74523;SDS011;63074;44.696;10.358;2023-05-29T11:00:52;13.40;;;9.27;;
74523;SDS011;63074;44.696;10.358;2023-05-29T11:03:21;13.55;;;9.13;;
74523;SDS011;63074;44.696;10.358;2023-05-29T11:05:56;13.52;;;7.53;;
74523;SDS011;63074;44.696;10.358;2023-05-29T11:08:45;13.15;;;8.55;;
74523;SDS011;63074;44.696;10.358;2023-05-29T11:14:01;14.55;;;8.52;;
74523;SDS011;63074;44.696;10.358;2023-05-29T11:18:56;12.10;;;6.95;;
74523;SDS011;63074;44.696;10.358;2023-05-29T11:24:03;12.45;;;7.53;;
74523;SDS011;63074;44.696;10.358;2023-05-29T11:26:32;15.35;;;9.05;;
74523;SDS011;63074;44.696;10.358;2023-05-29T11:36:24;14.15;;;8.30;;
74523;SDS011;63074;44.696;10.358;2023-05-29T11:38:52;13.70;;;7.93;;
74523;SDS011;63074;44.696;10.358;2023-05-29T11:41:19;12.60;;;8.48;;
74523;SDS011;63074;44.696;10.358;2023-05-29T11:44:06;11.88;;;7.78;;
74523;SDS011;63074;44.696;10.358;2023-05-29T11:46:32;16.48;;;8.20;;
74523;SDS011;63074;44.696;10.358;2023-05-29T11:48:59;15.60;;;7.32;;
74523;SDS011;63074;44.696;10.358;2023-05-29T11:51:26;11.70;;;7.28;;
74523;SDS011;63074;44.696;10.358;2023-05-29T11:53:52;14.00;;;8.80;;
74523;SDS011;63074;44.696;10.358;2023-05-29T11:56:29;13.43;;;7.75;;
74523;SDS011;63074;44.696;10.358;2023-05-29T11:58:56;12.40;;;7.15;;
74523;SDS011;63074;44.696;10.358;2023-05-29T12:03:52;12.07;;;7.50;;
74523;SDS011;63074;44.696;10.358;2023-05-29T12:06:34;11.00;;;7.50;;
74523;SDS011;63074;44.696;10.358;2023-05-29T12:09:03;10.45;;;6.07;;
74523;SDS011;63074;44.696;10.358;2023-05-29T12:11:30;13.18;;;6.63;;
74523;SDS011;63074;44.696;10.358;2023-05-29T12:13:59;11.10;;;7.40;;
74523;SDS011;63074;44.696;10.358;2023-05-29T12:16:27;11.82;;;6.85;;
74523;SDS011;63074;44.696;10.358;2023-05-29T12:21:22;12.25;;;7.53;;
74523;SDS011;63074;44.696;10.358;2023-05-29T12:23:52;11.82;;;7.50;;
74523;SDS011;63074;44.696;10.358;2023-05-29T12:26:23;10.68;;;6.80;;
74523;SDS011;63074;44.696;10.358;2023-05-29T12:28:51;13.75;;;7.97;;
74523;SDS011;63074;44.696;10.358;2023-05-29T12:31:29;12.75;;;7.93;;
74523;SDS011;63074;44.696;10.358;2023-05-29T12:34:06;12.23;;;8.10;;
74523;SDS011;63074;44.696;10.358;2023-05-29T12:36:35;10.98;;;6.68;;
74523;SDS011;63074;44.696;10.358;2023-05-29T12:39:11;10.40;;;6.95;;
74523;SDS011;63074;44.696;10.358;2023-05-29T12:41:38;9.95;;;7.75;;
74523;SDS011;63074;44.696;10.358;2023-05-29T12:44:05;12.77;;;7.53;;
74523;SDS011;63074;44.696;10.358;2023-05-29T12:46:40;10.10;;;6.78;;
74523;SDS011;63074;44.696;10.358;2023-05-29T12:49:13;11.00;;;7.13;;
74523;SDS011;63074;44.696;10.358;2023-05-29T12:51:48;13.07;;;7.43;;
74523;SDS011;63074;44.696;10.358;2023-05-29T12:54:15;13.07;;;7.75;;
74523;SDS011;63074;44.696;10.358;2023-05-29T12:56:42;11.10;;;6.75;;
74523;SDS011;63074;44.696;10.358;2023-05-29T12:59:10;12.50;;;6.90;;
74523;SDS011;63074;44.696;10.358;2023-05-29T13:01:36;12.15;;;7.88;;
74523;SDS011;63074;44.696;10.358;2023-05-29T13:04:06;13.73;;;8.70;;
74523;SDS011;63074;44.696;10.358;2023-05-29T13:06:34;11.68;;;7.38;;
74523;SDS011;63074;44.696;10.358;2023-05-29T13:09:01;12.27;;;7.55;;
74523;SDS011;63074;44.696;10.358;2023-05-29T13:11:28;15.02;;;7.55;;
74523;SDS011;63074;44.696;10.358;2023-05-29T13:13:54;12.02;;;7.22;;
74523;SDS011;63074;44.696;10.358;2023-05-29T13:16:21;11.32;;;7.75;;
74523;SDS011;63074;44.696;10.358;2023-05-29T13:18:47;12.30;;;7.45;;
74523;SDS011;63074;44.696;10.358;2023-05-29T13:21:14;10.18;;;6.35;;
74523;SDS011;63074;44.696;10.358;2023-05-29T13:23:40;11.13;;;6.18;;
74523;SDS011;63074;44.696;10.358;2023-05-29T13:26:06;9.43;;;5.60;;
74523;SDS011;63074;44.696;10.358;2023-05-29T13:28:32;9.25;;;6.18;;
74523;SDS011;63074;44.696;10.358;2023-05-29T13:30:59;9.77;;;6.72;;
74523;SDS011;63074;44.696;10.358;2023-05-29T13:33:25;10.20;;;7.55;;
74523;SDS011;63074;44.696;10.358;2023-05-29T13:35:51;11.15;;;6.20;;
74523;SDS011;63074;44.696;10.358;2023-05-29T13:38:18;11.20;;;7.05;;
74523;SDS011;63074;44.696;10.358;2023-05-29T13:40:44;12.00;;;6.50;;
74523;SDS011;63074;44.696;10.358;2023-05-29T13:43:10;11.13;;;5.57;;
74523;SDS011;63074;44.696;10.358;2023-05-29T13:45:37;10.07;;;6.00;;
74523;SDS011;63074;44.696;10.358;2023-05-29T13:48:05;11.60;;;5.60;;
74523;SDS011;63074;44.696;10.358;2023-05-29T13:50:31;6.82;;;4.78;;
74523;SDS011;63074;44.696;10.358;2023-05-29T13:52:57;9.15;;;4.78;;
74523;SDS011;63074;44.696;10.358;2023-05-29T13:55:25;6.55;;;4.47;;
74523;SDS011;63074;44.696;10.358;2023-05-29T13:57:51;8.48;;;5.28;;
74523;SDS011;63074;44.696;10.358;2023-05-29T14:00:18;6.15;;;4.05;;
74523;SDS011;63074;44.696;10.358;2023-05-29T14:02:44;13.75;;;6.07;;
74523;SDS011;63074;44.696;10.358;2023-05-29T14:05:10;12.15;;;5.90;;
74523;SDS011;63074;44.696;10.358;2023-05-29T14:07:36;7.85;;;5.00;;
74523;SDS011;63074;44.696;10.358;2023-05-29T14:10:03;9.18;;;4.75;;
74523;SDS011;63074;44.696;10.358;2023-05-29T14:12:30;8.32;;;5.30;;
74523;SDS011;63074;44.696;10.358;2023-05-29T14:14:56;7.97;;;5.03;;
74523;SDS011;63074;44.696;10.358;2023-05-29T14:17:22;8.60;;;4.50;;
74523;SDS011;63074;44.696;10.358;2023-05-29T14:19:50;9.48;;;5.25;;
74523;SDS011;63074;44.696;10.358;2023-05-29T14:22:17;8.05;;;4.65;;
74523;SDS011;63074;44.696;10.358;2023-05-29T14:24:43;9.52;;;4.85;;
74523;SDS011;63074;44.696;10.358;2023-05-29T14:27:09;8.52;;;5.38;;
74523;SDS011;63074;44.696;10.358;2023-05-29T14:29:36;6.85;;;4.60;;
74523;SDS011;63074;44.696;10.358;2023-05-29T14:32:02;6.43;;;4.38;;
74523;SDS011;63074;44.696;10.358;2023-05-29T14:34:28;7.70;;;4.22;;
74523;SDS011;63074;44.696;10.358;2023-05-29T14:36:55;7.82;;;4.57;;
74523;SDS011;63074;44.696;10.358;2023-05-29T14:39:21;8.88;;;4.28;;
74523;SDS011;63074;44.696;10.358;2023-05-29T14:41:47;9.55;;;6.68;;
74523;SDS011;63074;44.696;10.358;2023-05-29T14:44:14;8.43;;;5.30;;
74523;SDS011;63074;44.696;10.358;2023-05-29T14:46:40;6.43;;;4.20;;
74523;SDS011;63074;44.696;10.358;2023-05-29T14:49:07;8.60;;;4.57;;
74523;SDS011;63074;44.696;10.358;2023-05-29T14:51:33;8.63;;;5.05;;
74523;SDS011;63074;44.696;10.358;2023-05-29T14:54:00;5.72;;;4.10;;
74523;SDS011;63074;44.696;10.358;2023-05-29T14:56:26;8.77;;;4.72;;
74523;SDS011;63074;44.696;10.358;2023-05-29T14:58:53;10.23;;;4.78;;
74523;SDS011;63074;44.696;10.358;2023-05-29T15:01:19;8.18;;;4.70;;
74523;SDS011;63074;44.696;10.358;2023-05-29T15:03:45;9.13;;;4.82;;
74523;SDS011;63074;44.696;10.358;2023-05-29T15:06:12;7.40;;;4.53;;
74523;SDS011;63074;44.696;10.358;2023-05-29T15:08:38;7.38;;;4.47;;